Time;durP1;ratioP1;P1;durP2;ratioP2;P2;SDS_P1;SDS_P2;PMS_P1;PMS_P2;Temp;Humidity;BMP_temperature;BMP_pressure;BME280_temperature;BME280_humidity;BME280_pressure;Samples;Min_cycle;Max_cycle;Signal;HPM_P1;HPM_P2
2023/05/20 04:00:15;;;;;;;11.90;6.10;;;10.50;99.90;;;;;;6040352;23;20186;31
2023/05/20 04:02:41;;;;;;;11.68;6.72;;;10.50;99.90;;;;;;4935771;29;20085;-76
2023/05/20 04:05:10;;;;;;;11.85;5.70;;;10.50;99.90;;;;;;4936780;29;20043;-74
2023/05/20 04:07:36;;;;;;;11.77;6.22;;;10.50;99.90;;;;;;4938451;29;20364;-76
2023/05/20 04:10:03;;;;;;;11.90;6.00;;;10.60;99.90;;;;;;4936453;29;20134;-75
2023/05/20 04:12:29;;;;;;;11.93;6.15;;;10.60;99.90;;;;;;4936608;29;20043;-74
2023/05/20 04:15:00;;;;;;;9.60;5.75;;;10.60;99.90;;;;;;4936499;29;20048;-74
2023/05/20 04:17:30;;;;;;;14.13;6.55;;;10.60;99.90;;;;;;4935706;29;20139;-76
2023/05/20 04:19:58;;;;;;;11.05;5.40;;;10.60;99.90;;;;;;4936349;29;20085;-76
2023/05/20 04:22:25;;;;;;;11.88;5.53;;;10.60;99.90;;;;;;4951981;28;20048;-76
2023/05/20 04:24:51;;;;;;;12.60;5.60;;;10.60;99.90;;;;;;4952011;29;20098;-76
2023/05/20 04:27:17;;;;;;;10.10;5.88;;;10.60;99.90;;;;;;4937386;29;20040;-73
2023/05/20 04:29:46;;;;;;;10.10;5.50;;;10.60;99.90;;;;;;4937407;29;20479;-76
2023/05/20 04:32:18;;;;;;;13.07;5.90;;;10.60;99.90;;;;;;4937584;29;20044;-75
2023/05/20 04:34:44;;;;;;;11.77;5.95;;;10.60;99.90;;;;;;4937332;29;20047;-76
2023/05/20 04:37:11;;;;;;;12.90;5.82;;;10.60;99.90;;;;;;4937190;29;20048;-76
2023/05/20 04:39:37;;;;;;;14.85;5.97;;;10.60;99.90;;;;;;4935946;29;20484;-77
2023/05/20 04:42:03;;;;;;;12.23;6.00;;;10.50;99.90;;;;;;4937047;29;20044;-73
2023/05/20 04:44:29;;;;;;;11.52;5.50;;;10.60;99.90;;;;;;4951908;29;20047;-76
2023/05/20 04:46:56;;;;;;;11.20;5.15;;;10.60;99.90;;;;;;4937264;29;20539;-76
2023/05/20 04:49:24;;;;;;;10.18;5.13;;;10.70;99.90;;;;;;4936005;29;20091;-77
2023/05/20 04:51:51;;;;;;;9.25;4.93;;;10.70;99.90;;;;;;4936980;29;20432;-74
2023/05/20 04:54:16;;;;;;;12.73;5.10;;;10.80;99.90;;;;;;4936927;29;20489;-73
2023/05/20 04:56:43;;;;;;;11.15;4.97;;;10.80;99.90;;;;;;4935707;29;20060;-73
2023/05/20 04:59:09;;;;;;;12.52;5.22;;;10.80;99.90;;;;;;4935795;29;20040;-74
2023/05/20 05:01:35;;;;;;;8.02;4.88;;;10.90;99.90;;;;;;4951432;28;20090;-76
2023/05/20 05:04:01;;;;;;;8.68;4.53;;;11.00;99.90;;;;;;4951381;29;20055;-76
2023/05/20 05:06:28;;;;;;;9.82;4.82;;;11.00;99.90;;;;;;4951395;29;20052;-75
2023/05/20 05:08:54;;;;;;;10.10;4.47;;;11.00;99.90;;;;;;4936895;29;20040;-74
2023/05/20 05:11:20;;;;;;;11.35;4.70;;;11.00;99.90;;;;;;4935318;29;20448;-74
2023/05/20 05:13:46;;;;;;;9.07;4.10;;;11.10;99.90;;;;;;4936362;29;20451;-78
2023/05/20 05:16:11;;;;;;;11.73;4.22;;;11.10;99.90;;;;;;4936387;29;20036;-74
2023/05/20 05:18:37;;;;;;;10.88;4.50;;;11.10;99.90;;;;;;4951033;29;20424;-75
2023/05/20 05:21:05;;;;;;;7.10;4.22;;;11.10;99.90;;;;;;4950758;28;20044;-75
2023/05/20 05:23:31;;;;;;;12.07;5.43;;;11.10;99.90;;;;;;4934798;29;20047;-75
2023/05/20 05:25:57;;;;;;;9.38;4.03;;;11.10;99.90;;;;;;4950839;29;20048;-75
2023/05/20 05:28:23;;;;;;;9.23;4.15;;;11.20;99.90;;;;;;4936311;29;20091;-76
2023/05/20 05:30:49;;;;;;;11.20;4.40;;;11.20;99.90;;;;;;4934902;29;20558;-74
2023/05/20 05:33:15;;;;;;;11.98;4.32;;;11.20;99.90;;;;;;4936378;29;20051;-75
2023/05/20 05:35:41;;;;;;;8.80;3.92;;;11.30;99.90;;;;;;4934858;29;20040;-75
2023/05/20 05:38:07;;;;;;;6.30;3.90;;;11.30;99.90;;;;;;4950815;29;20048;-74
2023/05/20 05:40:34;;;;;;;5.90;4.18;;;11.40;99.90;;;;;;4935109;29;20051;-76
2023/05/20 05:43:00;;;;;;;10.75;4.20;;;11.40;99.90;;;;;;4936325;29;20095;-74
2023/05/20 05:45:25;;;;;;;8.40;3.85;;;11.40;99.90;;;;;;4936546;29;20035;-76
2023/05/20 05:47:51;;;;;;;7.10;3.60;;;11.50;99.90;;;;;;4936549;29;20451;-75
2023/05/20 05:50:17;;;;;;;9.13;3.75;;;11.60;99.90;;;;;;4951092;29;20444;-75
2023/05/20 05:52:42;;;;;;;5.95;3.40;;;11.60;99.90;;;;;;4936556;29;20043;-75
2023/05/20 05:55:09;;;;;;;9.15;3.47;;;11.70;99.90;;;;;;4935068;29;20050;-77
2023/05/20 05:57:35;;;;;;;9.32;4.03;;;11.80;99.90;;;;;;4934953;29;20044;-75
2023/05/20 06:00:01;;;;;;;5.90;3.40;;;11.90;99.90;;;;;;4936577;29;20039;-74
2023/05/20 06:02:26;;;;;;;7.88;3.10;;;12.00;99.90;;;;;;4934858;29;20043;-75
2023/05/20 06:04:52;;;;;;;10.18;3.45;;;12.10;99.90;;;;;;4936277;29;20380;-77
2023/05/20 06:07:18;;;;;;;6.40;2.92;;;12.10;99.90;;;;;;4936275;29;20039;-77
2023/05/20 06:09:44;;;;;;;8.30;3.17;;;12.20;99.90;;;;;;4950712;29;20044;-73
2023/05/20 06:12:10;;;;;;;6.50;2.70;;;12.20;99.90;;;;;;4936033;29;20048;-77
2023/05/20 06:14:35;;;;;;;8.32;2.55;;;12.20;99.90;;;;;;4950372;29;20063;-75
2023/05/20 06:17:02;;;;;;;5.90;2.40;;;12.30;99.90;;;;;;4935897;29;20043;-75
2023/05/20 06:19:28;;;;;;;5.03;2.40;;;12.30;99.90;;;;;;4935800;29;20035;-75
2023/05/20 06:21:54;;;;;;;5.30;2.67;;;12.40;99.90;;;;;;4934668;29;20509;-75
2023/05/20 06:24:20;;;;;;;6.32;2.20;;;12.40;99.90;;;;;;4934303;29;20047;-75
2023/05/20 06:26:48;;;;;;;6.40;2.20;;;12.50;99.90;;;;;;4950836;29;20051;-75
2023/05/20 06:29:14;;;;;;;4.65;2.42;;;12.50;99.90;;;;;;4950647;29;20427;-75
2023/05/20 06:31:39;;;;;;;6.70;2.42;;;12.50;99.90;;;;;;4934479;29;20098;-75
2023/05/20 06:34:05;;;;;;;5.93;2.40;;;12.50;99.90;;;;;;4950626;29;20172;-75
2023/05/20 06:36:31;;;;;;;7.28;2.97;;;12.60;99.90;;;;;;4935664;29;20492;-76
2023/05/20 06:38:56;;;;;;;5.70;2.45;;;12.60;99.90;;;;;;4934633;29;20050;-75
2023/05/20 06:41:22;;;;;;;5.88;2.13;;;12.60;99.90;;;;;;4937794;29;20059;-75
2023/05/20 06:43:48;;;;;;;8.52;2.25;;;12.70;99.90;;;;;;4939432;29;20080;-74
2023/05/20 06:46:13;;;;;;;6.22;2.55;;;12.70;99.90;;;;;;4953864;29;20082;-75
2023/05/20 06:48:39;;;;;;;6.80;2.22;;;12.70;99.90;;;;;;4937535;29;20456;-77
2023/05/20 06:51:08;;;;;;;4.13;2.15;;;12.80;99.90;;;;;;4953827;28;20381;-76
2023/05/20 06:53:34;;;;;;;4.10;2.53;;;12.80;99.90;;;;;;4937549;29;20051;-76
2023/05/20 06:55:59;;;;;;;4.05;1.92;;;12.80;99.90;;;;;;4953756;29;20059;-77
2023/05/20 06:58:25;;;;;;;5.18;2.47;;;12.90;99.90;;;;;;4937577;29;20075;-74
2023/05/20 07:00:51;;;;;;;4.90;2.42;;;12.90;99.90;;;;;;4953071;28;20043;-74
2023/05/20 07:03:16;;;;;;;7.65;2.45;;;12.90;99.90;;;;;;4953261;29;20040;-74
2023/05/20 07:05:43;;;;;;;9.13;2.40;;;13.00;99.90;;;;;;4953034;29;20505;-74
2023/05/20 07:08:08;;;;;;;4.15;2.17;;;13.10;99.90;;;;;;4938265;29;20044;-74
2023/05/20 07:10:34;;;;;;;5.68;1.98;;;13.10;99.90;;;;;;4952807;29;20051;-76
2023/05/20 07:13:00;;;;;;;3.97;2.00;;;13.20;99.90;;;;;;4936949;29;20055;-76
2023/05/20 07:15:25;;;;;;;6.15;2.30;;;13.30;99.90;;;;;;4937049;29;20050;-77
2023/05/20 07:17:51;;;;;;;6.28;1.90;;;13.40;99.90;;;;;;4937266;29;20053;-74
2023/05/20 07:20:17;;;;;;;5.32;1.95;;;13.40;99.90;;;;;;4938782;29;20044;-76
2023/05/20 07:22:43;;;;;;;5.65;2.17;;;13.60;99.90;;;;;;4938154;29;20043;-76
2023/05/20 07:25:09;;;;;;;4.43;1.90;;;13.60;99.90;;;;;;4953127;29;20040;-76
2023/05/20 07:27:35;;;;;;;6.25;1.92;;;13.70;99.90;;;;;;4937209;29;20122;-76
2023/05/20 07:30:01;;;;;;;6.07;1.77;;;13.80;99.90;;;;;;4938110;29;20131;-76
2023/05/20 07:32:27;;;;;;;5.82;2.33;;;13.90;99.90;;;;;;4936886;29;20052;-77
2023/05/20 07:34:52;;;;;;;3.78;1.77;;;14.00;99.90;;;;;;4938727;29;20345;-73
2023/05/20 07:37:18;;;;;;;3.72;1.92;;;14.00;99.90;;;;;;4953008;29;20118;-79
2023/05/20 07:39:44;;;;;;;5.95;2.03;;;14.10;99.90;;;;;;4953260;29;20069;-78
2023/05/20 07:42:09;;;;;;;3.58;1.98;;;14.20;99.90;;;;;;4953483;28;20059;-76
2023/05/20 07:44:35;;;;;;;3.83;2.00;;;14.40;99.90;;;;;;4938147;29;20095;-76
2023/05/20 07:47:01;;;;;;;5.78;1.90;;;14.40;99.90;;;;;;4937769;29;20071;-76
2023/05/20 07:49:27;;;;;;;9.95;2.20;;;14.60;99.90;;;;;;4937961;29;20119;-77
2023/05/20 07:51:52;;;;;;;4.25;2.15;;;14.60;99.90;;;;;;4934973;29;20521;-76
2023/05/20 07:54:18;;;;;;;3.35;1.95;;;14.70;99.90;;;;;;4951702;29;20051;-76
2023/05/20 07:56:44;;;;;;;4.03;1.80;;;14.80;99.90;;;;;;4936648;29;20051;-78
2023/05/20 07:59:09;;;;;;;4.25;1.75;;;14.90;99.90;;;;;;4938319;29;20479;-74
2023/05/20 08:01:35;;;;;;;5.03;1.98;;;15.00;99.90;;;;;;4937229;29;20491;-78
2023/05/20 08:04:01;;;;;;;3.85;2.30;;;15.10;99.90;;;;;;4937999;29;20040;-83
2023/05/20 08:06:27;;;;;;;3.38;1.60;;;15.20;99.90;;;;;;4938782;29;20047;-84
2023/05/20 08:08:53;;;;;;;6.78;1.80;;;15.30;99.90;;;;;;4938204;29;20377;-81
2023/05/20 08:11:21;;;;;;;3.50;1.80;;;15.40;99.90;;;;;;4938492;29;20461;-82
2023/05/20 08:13:47;;;;;;;8.45;2.75;;;15.40;99.90;;;;;;4939057;29;20044;-84
2023/05/20 08:16:13;;;;;;;7.43;2.00;;;15.60;99.90;;;;;;4937272;29;20058;-76
2023/05/20 08:18:39;;;;;;;3.38;1.80;;;15.70;99.90;;;;;;4936631;29;20051;-76
2023/05/20 08:21:06;;;;;;;5.55;1.80;;;15.80;99.90;;;;;;4920398;29;20439;-75
2023/05/20 08:23:33;;;;;;;3.20;1.65;;;15.90;99.90;;;;;;4938444;29;20056;-82
2023/05/20 08:26:01;;;;;;;5.18;1.70;;;16.00;99.90;;;;;;4936893;29;20123;-74
2023/05/20 08:28:30;;;;;;;4.78;1.70;;;16.20;99.90;;;;;;4938144;29;20468;-76
2023/05/20 08:30:56;;;;;;;5.75;2.00;;;16.30;99.90;;;;;;4938001;29;20043;-81
2023/05/20 08:33:22;;;;;;;4.28;1.85;;;16.30;99.90;;;;;;4920415;29;20052;-77
2023/05/20 08:35:48;;;;;;;3.88;1.75;;;16.40;99.90;;;;;;4937181;29;20047;-77
2023/05/20 08:38:14;;;;;;;3.03;1.60;;;16.50;99.90;;;;;;4936072;29;20399;-77
2023/05/20 08:40:40;;;;;;;4.53;1.92;;;16.60;99.90;;;;;;4936014;29;20036;-76
2023/05/20 08:43:06;;;;;;;2.90;1.52;;;16.70;99.90;;;;;;4935465;29;20063;-75
2023/05/20 08:45:32;;;;;;;7.45;2.00;;;16.80;99.90;;;;;;4935986;29;20099;-74
2023/05/20 08:47:59;;;;;;;4.18;1.77;;;16.90;99.90;;;;;;4936057;29;20346;-80
2023/05/20 08:50:25;;;;;;;4.47;1.90;;;17.00;99.90;;;;;;4951904;29;20388;-74
2023/05/20 08:52:52;;;;;;;3.08;1.70;;;17.10;99.90;;;;;;4936532;29;20043;-76
2023/05/20 08:55:25;;;;;;;3.15;1.77;;;17.20;99.90;;;;;;4935471;29;20480;-78
2023/05/20 08:57:53;;;;;;;3.25;1.80;;;17.30;99.90;;;;;;4951556;29;20040;-76
2023/05/20 09:00:22;;;;;;;4.40;1.60;;;17.30;99.90;;;;;;4951334;29;20178;-76
2023/05/20 09:02:48;;;;;;;4.05;1.90;;;17.40;99.90;;;;;;4951549;28;20043;-75
2023/05/20 09:05:14;;;;;;;4.28;1.85;;;17.60;99.90;;;;;;4935712;29;20051;-76
2023/05/20 09:07:42;;;;;;;5.40;2.05;;;17.70;99.90;;;;;;4935541;29;20046;-77
2023/05/20 09:10:08;;;;;;;5.13;2.20;;;17.80;99.90;;;;;;4935294;29;20044;-78
2023/05/20 09:12:34;;;;;;;5.28;1.83;;;17.90;99.90;;;;;;4935530;29;20046;-77
2023/05/20 09:15:00;;;;;;;4.13;2.10;;;18.00;99.90;;;;;;4938055;29;20043;-77
2023/05/20 09:17:26;;;;;;;5.45;1.95;;;18.20;99.90;;;;;;4937067;29;20098;-76
2023/05/20 09:19:55;;;;;;;5.55;2.17;;;18.30;99.90;;;;;;4935072;29;20523;-78
2023/05/20 09:22:25;;;;;;;5.80;1.85;;;18.50;99.90;;;;;;4950925;28;20126;-79
2023/05/20 09:24:52;;;;;;;5.78;2.13;;;18.50;99.90;;;;;;4934710;29;20436;-76
2023/05/20 09:27:19;;;;;;;3.97;1.88;;;18.60;99.90;;;;;;4950815;29;20102;-77
2023/05/20 09:29:47;;;;;;;4.10;1.90;;;18.70;99.90;;;;;;4951629;29;20055;-76
2023/05/20 09:32:13;;;;;;;3.35;2.00;;;18.80;99.90;;;;;;4933841;29;20503;-78
2023/05/20 09:34:44;;;;;;;4.05;1.98;;;18.90;99.90;;;;;;4919953;29;20428;-76
2023/05/20 09:37:10;;;;;;;5.22;2.00;;;19.00;99.90;;;;;;4934524;29;20063;-76
2023/05/20 09:39:59;;;;;;;3.45;1.77;;;19.10;99.90;;;;;;4935039;29;20070;-76
2023/05/20 09:42:27;;;;;;;3.53;2.00;;;19.20;99.90;;;;;;4935710;29;20068;-78
2023/05/20 09:44:55;;;;;;;4.63;2.00;;;19.30;99.90;;;;;;4934236;29;20123;-77
2023/05/20 09:47:23;;;;;;;6.20;2.15;;;19.40;99.90;;;;;;4934827;29;20044;-75
2023/05/20 09:49:51;;;;;;;5.38;1.90;;;19.40;99.90;;;;;;4934782;29;20115;-78
2023/05/20 09:52:17;;;;;;;3.58;2.03;;;19.50;99.90;;;;;;4934426;29;20189;-75
2023/05/20 09:54:44;;;;;;;4.10;2.03;;;19.50;99.90;;;;;;4934334;29;20051;-77
2023/05/20 09:57:09;;;;;;;4.72;1.80;;;19.60;99.90;;;;;;4935801;29;20123;-76
2023/05/20 09:59:37;;;;;;;4.75;2.00;;;19.70;99.90;;;;;;4934610;29;20087;-77
2023/05/20 10:02:05;;;;;;;3.42;1.80;;;19.70;99.90;;;;;;4934170;29;20090;-79
2023/05/20 10:04:33;;;;;;;7.22;2.20;;;19.70;99.90;;;;;;4934064;29;20047;-77
2023/05/20 10:07:08;;;;;;;3.00;1.90;;;19.50;99.90;;;;;;4935803;29;20119;-77
2023/05/20 10:10:02;;;;;;;7.10;2.03;;;19.60;99.90;;;;;;4934778;29;20044;-77
2023/05/20 10:13:01;;;;;;;3.47;1.85;;;19.80;99.90;;;;;;4934677;29;20477;-77
2023/05/20 10:15:54;;;;;;;5.03;2.13;;;20.00;99.90;;;;;;4936813;29;20484;-77
2023/05/20 10:18:38;;;;;;;5.35;2.25;;;20.10;99.90;;;;;;4922401;29;20036;-77
2023/05/20 10:21:23;;;;;;;3.50;1.85;;;20.00;99.90;;;;;;4937894;29;20040;-76
2023/05/20 10:23:50;;;;;;;4.57;1.80;;;19.70;99.90;;;;;;4938270;29;20175;-78
2023/05/20 10:26:16;;;;;;;3.25;1.70;;;19.80;99.90;;;;;;4939122;29;20087;-76
2023/05/20 10:28:42;;;;;;;4.63;2.13;;;19.80;99.90;;;;;;4937858;29;20043;-78
2023/05/20 10:31:21;;;;;;;6.70;2.05;;;19.80;99.90;;;;;;4939386;29;20055;-77
2023/05/20 10:33:47;;;;;;;3.75;1.90;;;19.70;99.90;;;;;;4939630;29;20043;-77
2023/05/20 10:36:27;;;;;;;7.57;1.98;;;19.90;99.90;;;;;;4939687;29;20031;-77
2023/05/20 10:38:57;;;;;;;3.58;1.65;;;20.20;99.90;;;;;;4937552;29;20055;-76
2023/05/20 10:41:27;;;;;;;7.45;2.30;;;20.40;99.90;;;;;;4937720;29;20055;-77
2023/05/20 10:44:04;;;;;;;6.07;2.20;;;20.50;99.90;;;;;;4921661;29;20055;-78
2023/05/20 10:46:31;;;;;;;4.22;1.85;;;20.70;99.90;;;;;;4938860;29;20036;-76
2023/05/20 10:48:57;;;;;;;6.10;2.15;;;21.00;99.90;;;;;;4952645;28;20039;-77
2023/05/20 10:51:24;;;;;;;4.70;1.90;;;21.10;99.90;;;;;;4938607;29;20407;-77
2023/05/20 10:53:53;;;;;;;3.28;1.80;;;21.30;99.90;;;;;;4937984;29;20055;-76
2023/05/20 10:56:21;;;;;;;5.65;1.90;;;21.50;99.90;;;;;;4938638;29;20036;-78
2023/05/20 10:58:48;;;;;;;3.72;1.75;;;21.60;99.50;;;;;;4939037;29;20119;-77
2023/05/20 11:01:15;;;;;;;4.03;1.65;;;21.60;97.90;;;;;;4938228;29;20039;-79
2023/05/20 11:03:42;;;;;;;5.57;1.95;;;21.70;98.10;;;;;;4921709;29;20123;-76
2023/05/20 11:06:17;;;;;;;5.10;1.60;;;21.50;97.50;;;;;;4937350;29;20036;-76
2023/05/20 11:08:44;;;;;;;3.72;1.83;;;21.30;96.40;;;;;;4938530;29;20047;-76
2023/05/20 11:11:13;;;;;;;5.28;1.80;;;21.10;96.90;;;;;;4937181;29;20480;-78
2023/05/20 11:13:39;;;;;;;5.70;1.75;;;21.10;96.90;;;;;;4937549;29;20054;-77
2023/05/20 11:16:05;;;;;;;5.28;1.92;;;21.00;97.00;;;;;;4937021;29;20047;-78
2023/05/20 11:18:31;;;;;;;6.22;1.90;;;21.00;97.00;;;;;;4937601;29;20051;-78
2023/05/20 11:21:01;;;;;;;3.67;1.88;;;21.00;97.10;;;;;;4937390;29;20040;-77
2023/05/20 11:23:28;;;;;;;5.88;1.88;;;21.00;96.70;;;;;;4938055;29;20152;-76
2023/05/20 11:25:55;;;;;;;6.07;1.90;;;20.80;96.20;;;;;;4938006;29;20084;-77
2023/05/20 11:28:22;;;;;;;2.72;1.67;;;20.70;96.40;;;;;;4937303;29;20067;-78
2023/05/20 11:30:49;;;;;;;3.50;1.65;;;20.80;96.40;;;;;;4936827;29;20043;-76
2023/05/20 11:33:16;;;;;;;5.40;1.80;;;20.90;96.20;;;;;;4937895;29;20179;-76
2023/05/20 11:35:48;;;;;;;4.38;1.67;;;21.10;96.60;;;;;;4936557;29;20503;-77
2023/05/20 11:38:14;;;;;;;7.63;1.80;;;21.20;96.60;;;;;;4936491;29;20055;-77
2023/05/20 11:40:45;;;;;;;4.35;1.83;;;21.40;96.10;;;;;;4937956;29;20523;-77
2023/05/20 11:43:12;;;;;;;9.27;1.88;;;21.40;95.10;;;;;;4936460;29;20052;-75
2023/05/20 11:45:40;;;;;;;5.55;1.80;;;21.40;94.90;;;;;;4937822;29;20513;-78
2023/05/20 11:48:06;;;;;;;5.18;1.63;;;21.30;94.70;;;;;;4938060;29;20075;-75
2023/05/20 11:50:38;;;;;;;5.35;1.70;;;21.30;95.00;;;;;;4937978;29;20032;-76
2023/05/20 11:53:04;;;;;;;5.38;1.80;;;21.30;94.90;;;;;;4937956;29;20399;-80
2023/05/20 11:55:34;;;;;;;3.40;1.98;;;21.40;95.10;;;;;;4937249;29;20472;-77
2023/05/20 11:58:02;;;;;;;7.45;1.77;;;21.50;94.60;;;;;;4937274;29;20098;-76
2023/05/20 12:00:27;;;;;;;3.67;2.55;;;21.60;94.20;;;;;;4937951;29;20403;-78
2023/05/20 12:02:53;;;;;;;5.32;1.92;;;21.60;94.20;;;;;;4936431;29;20043;-76
2023/05/20 12:05:19;;;;;;;3.70;2.05;;;21.70;94.30;;;;;;4936162;29;20134;-75
2023/05/20 12:07:45;;;;;;;5.07;1.83;;;21.70;93.80;;;;;;4938077;29;20051;-76
2023/05/20 12:10:12;;;;;;;4.60;1.60;;;21.70;93.40;;;;;;4937471;29;20052;-77
2023/05/20 12:12:38;;;;;;;3.33;1.90;;;21.80;93.70;;;;;;4936359;29;20083;-77
2023/05/20 12:15:05;;;;;;;3.97;1.80;;;22.10;93.50;;;;;;4936222;29;20079;-77
2023/05/20 12:17:51;;;;;;;5.55;2.10;;;22.30;93.20;;;;;;4936727;29;20047;-76
2023/05/20 12:20:18;;;;;;;6.82;1.67;;;22.60;92.60;;;;;;4935753;29;20044;-76
2023/05/20 12:22:44;;;;;;;4.45;1.83;;;22.40;91.70;;;;;;4920595;29;20039;-76
2023/05/20 12:25:11;;;;;;;5.72;1.80;;;22.20;91.40;;;;;;4920361;29;20127;-77
2023/05/20 12:27:37;;;;;;;7.93;1.65;;;21.90;90.80;;;;;;4937543;29;20055;-76
2023/05/20 12:30:04;;;;;;;3.92;1.90;;;21.90;90.90;;;;;;4935743;29;20052;-77
2023/05/20 12:32:29;;;;;;;4.03;2.05;;;22.00;91.20;;;;;;4935888;29;20494;-77
2023/05/20 12:34:55;;;;;;;3.70;1.73;;;22.20;91.70;;;;;;4937033;29;20122;-77
2023/05/20 12:37:21;;;;;;;3.70;1.67;;;22.40;91.50;;;;;;4936604;29;20125;-79
2023/05/20 12:39:46;;;;;;;4.72;2.20;;;22.60;91.00;;;;;;4936299;29;20480;-77
2023/05/20 12:42:12;;;;;;;5.45;1.88;;;22.80;90.10;;;;;;4935545;29;20043;-78
2023/05/20 12:44:38;;;;;;;6.43;1.92;;;22.90;89.20;;;;;;4937378;29;20091;-78
2023/05/20 12:47:04;;;;;;;3.58;1.80;;;23.00;88.10;;;;;;4936845;29;20036;-77
2023/05/20 12:49:29;;;;;;;3.95;1.80;;;23.20;87.80;;;;;;4936772;29;20040;-78
2023/05/20 12:51:55;;;;;;;3.65;1.60;;;23.40;88.00;;;;;;4936940;29;20047;-78
2023/05/20 12:54:20;;;;;;;5.25;1.83;;;23.70;88.00;;;;;;4935794;29;20051;-77
2023/05/20 12:56:47;;;;;;;3.50;2.03;;;23.50;85.80;;;;;;4935652;29;20503;-79
2023/05/20 12:59:13;;;;;;;5.32;1.90;;;23.20;85.20;;;;;;4935519;29;20052;-79
2023/05/20 13:01:39;;;;;;;7.57;1.95;;;22.90;84.80;;;;;;4936517;29;20047;-78
2023/05/20 13:04:05;;;;;;;5.38;1.65;;;22.60;84.50;;;;;;4951360;29;20047;-78
2023/05/20 13:06:33;;;;;;;5.68;1.73;;;22.60;84.70;;;;;;4936572;29;20036;-77
2023/05/20 13:08:58;;;;;;;5.97;1.80;;;22.90;85.50;;;;;;4936235;29;20040;-78
2023/05/20 13:11:24;;;;;;;4.72;1.90;;;23.00;83.90;;;;;;4951016;28;20046;-75
2023/05/20 13:13:49;;;;;;;4.53;2.00;;;22.70;83.50;;;;;;4936216;29;20044;-77
2023/05/20 13:16:16;;;;;;;4.50;1.77;;;22.50;83.50;;;;;;4935101;29;20507;-77
2023/05/20 13:18:43;;;;;;;4.53;1.70;;;22.40;84.30;;;;;;4936436;29;20040;-78
2023/05/20 13:21:08;;;;;;;6.00;1.90;;;22.60;85.10;;;;;;4934944;29;20044;-79
2023/05/20 13:23:35;;;;;;;6.47;1.88;;;22.80;84.10;;;;;;4950797;29;20095;-76
2023/05/20 13:26:01;;;;;;;5.30;1.80;;;22.80;82.80;;;;;;4935449;29;20065;-78
2023/05/20 13:28:27;;;;;;;4.57;1.80;;;23.10;82.50;;;;;;4936528;29;20411;-81
2023/05/20 13:30:53;;;;;;;8.35;1.63;;;23.30;82.60;;;;;;4934986;29;20044;-78
2023/05/20 13:33:18;;;;;;;4.97;1.70;;;23.50;82.30;;;;;;4936043;29;20047;-80
2023/05/20 13:35:44;;;;;;;5.10;2.00;;;23.50;81.60;;;;;;4935030;29;20039;-78
2023/05/20 13:38:09;;;;;;;7.25;1.88;;;23.30;80.40;;;;;;4934974;29;20468;-79
2023/05/20 13:40:35;;;;;;;3.58;1.55;;;22.90;79.70;;;;;;4934239;29;20052;-76
2023/05/20 13:43:01;;;;;;;4.57;1.50;;;22.90;80.40;;;;;;4950700;29;20396;-76
2023/05/20 13:45:28;;;;;;;3.50;1.67;;;22.90;81.30;;;;;;4950543;29;20478;-77
2023/05/20 13:47:54;;;;;;;4.53;1.88;;;22.90;81.10;;;;;;4935911;29;20039;-78
2023/05/20 13:50:19;;;;;;;5.68;2.10;;;22.90;81.00;;;;;;4934617;29;20051;-77
2023/05/20 13:52:45;;;;;;;5.88;1.55;;;22.70;82.10;;;;;;4934733;29;20067;-77
2023/05/20 13:55:11;;;;;;;4.25;1.77;;;22.80;83.20;;;;;;4934683;29;20087;-78
2023/05/20 13:57:36;;;;;;;5.90;1.80;;;22.90;83.10;;;;;;4950503;29;20055;-79
2023/05/20 14:00:03;;;;;;;5.40;2.30;;;23.30;82.70;;;;;;4950360;29;20111;-78
2023/05/20 14:02:29;;;;;;;5.03;1.90;;;23.50;82.60;;;;;;4950552;28;20075;-77
2023/05/20 14:04:55;;;;;;;8.80;1.92;;;23.40;82.10;;;;;;4936010;29;20095;-79
2023/05/20 14:07:21;;;;;;;6.80;2.03;;;23.00;80.60;;;;;;4934387;29;20048;-78
2023/05/20 14:09:46;;;;;;;4.50;1.65;;;22.80;80.90;;;;;;4935742;29;20039;-77
2023/05/20 14:12:12;;;;;;;3.22;1.50;;;23.00;81.90;;;;;;4936333;29;20039;-77
2023/05/20 14:14:38;;;;;;;4.60;1.50;;;23.30;82.00;;;;;;4935559;29;20100;-77
2023/05/20 14:17:03;;;;;;;5.95;1.92;;;23.60;81.30;;;;;;4935900;29;20039;-80
2023/05/20 14:19:29;;;;;;;6.07;2.55;;;23.50;80.40;;;;;;4935654;29;20523;-78
2023/05/20 14:21:55;;;;;;;4.28;2.08;;;23.20;81.30;;;;;;4950186;28;20043;-77
2023/05/20 14:24:20;;;;;;;5.53;1.90;;;23.00;81.90;;;;;;4934296;29;20048;-77
2023/05/20 14:26:46;;;;;;;4.53;2.08;;;22.70;82.10;;;;;;4950650;29;20131;-77
2023/05/20 14:29:13;;;;;;;8.38;2.30;;;22.40;83.00;;;;;;4950633;29;20500;-78
2023/05/20 14:31:39;;;;;;;6.88;2.13;;;22.20;83.20;;;;;;4936354;29;20040;-77
2023/05/20 14:34:04;;;;;;;5.20;1.98;;;22.20;83.20;;;;;;4950670;29;20044;-78
2023/05/20 14:36:31;;;;;;;7.20;2.00;;;22.20;83.20;;;;;;4935604;29;20031;-78
2023/05/20 14:38:56;;;;;;;3.40;2.10;;;22.40;83.30;;;;;;4935549;29;20050;-78
2023/05/20 14:41:22;;;;;;;6.13;2.75;;;22.40;84.40;;;;;;4950034;28;20074;-76
2023/05/20 14:43:47;;;;;;;7.18;2.70;;;22.20;86.70;;;;;;4935542;29;20094;-77
2023/05/20 14:46:13;;;;;;;6.63;2.50;;;22.00;88.10;;;;;;4950431;29;20039;-77
2023/05/20 14:48:39;;;;;;;5.72;2.67;;;21.90;89.20;;;;;;4935577;29;20035;-76
2023/05/20 14:51:04;;;;;;;5.47;2.45;;;21.80;90.20;;;;;;4935121;29;20484;-78
2023/05/20 14:53:30;;;;;;;4.55;2.95;;;21.60;90.00;;;;;;4935305;29;20040;-78
2023/05/20 14:55:56;;;;;;;6.78;2.75;;;21.50;90.30;;;;;;4950166;29;20130;-76
2023/05/20 14:58:21;;;;;;;5.85;2.30;;;21.40;91.00;;;;;;4949968;29;20090;-77
2023/05/20 15:00:47;;;;;;;5.38;2.83;;;21.30;91.60;;;;;;4935873;29;20102;-77
2023/05/20 15:03:12;;;;;;;4.88;2.42;;;21.30;92.10;;;;;;4946103;29;20044;-75
2023/05/20 15:05:39;;;;;;;4.75;2.40;;;21.30;91.80;;;;;;4940647;29;20114;-77
2023/05/20 15:08:05;;;;;;;8.23;2.60;;;21.30;91.60;;;;;;4953477;29;20055;-77
2023/05/20 15:10:31;;;;;;;7.05;2.85;;;21.40;92.20;;;;;;4938962;29;20050;-78
2023/05/20 15:12:56;;;;;;;7.53;3.00;;;21.40;92.90;;;;;;4939038;29;20039;-77
2023/05/20 15:15:22;;;;;;;8.30;2.80;;;21.30;93.40;;;;;;4954153;29;20533;-76
2023/05/20 15:17:48;;;;;;;6.97;2.72;;;21.20;93.50;;;;;;4953614;29;20044;-75
2023/05/20 15:20:13;;;;;;;8.10;2.60;;;21.20;93.80;;;;;;4938640;29;20079;-78
2023/05/20 15:22:40;;;;;;;8.82;2.63;;;21.10;94.10;;;;;;4939079;29;20042;-77
2023/05/20 15:25:06;;;;;;;5.32;2.90;;;21.10;94.30;;;;;;4953002;29;20090;-78
2023/05/20 15:27:31;;;;;;;6.30;2.63;;;21.10;94.70;;;;;;4938387;29;20492;-76
2023/05/20 15:29:57;;;;;;;8.73;2.60;;;21.40;95.10;;;;;;4953027;29;20048;-79
2023/05/20 15:32:23;;;;;;;7.97;3.05;;;21.70;94.70;;;;;;4938831;29;20114;-77
2023/05/20 15:34:48;;;;;;;3.97;2.30;;;22.00;94.50;;;;;;4937264;29;20079;-79
2023/05/20 15:37:15;;;;;;;4.78;2.15;;;22.00;94.00;;;;;;4938598;29;20095;-78
2023/05/20 15:39:41;;;;;;;6.90;2.33;;;21.90;93.60;;;;;;4953086;29;20050;-78
2023/05/20 15:42:06;;;;;;;5.93;2.40;;;21.70;93.40;;;;;;4937359;29;20122;-79
2023/05/20 15:44:34;;;;;;;5.70;2.08;;;21.50;93.30;;;;;;4953078;29;20044;-76
2023/05/20 15:46:59;;;;;;;7.60;3.70;;;21.30;93.20;;;;;;4952984;29;20465;-78
2023/05/20 15:49:25;;;;;;;6.85;3.13;;;21.20;93.60;;;;;;4952983;29;20043;-76
2023/05/20 15:51:51;;;;;;;9.07;2.88;;;21.10;93.70;;;;;;4952975;28;20043;-78
2023/05/20 15:54:18;;;;;;;6.28;2.50;;;21.10;93.90;;;;;;4952911;29;20039;-78
2023/05/20 15:56:44;;;;;;;4.95;2.67;;;21.10;94.20;;;;;;4938785;29;20083;-77
2023/05/20 15:59:10;;;;;;;5.40;2.80;;;21.00;94.50;;;;;;4938112;29;20074;-77
2023/05/20 16:01:35;;;;;;;6.97;2.42;;;20.90;94.50;;;;;;4952389;28;20044;-79
2023/05/20 16:04:01;;;;;;;6.60;2.35;;;20.70;94.60;;;;;;4952389;29;20046;-76
2023/05/20 16:06:26;;;;;;;6.00;2.25;;;20.70;94.30;;;;;;4952310;29;20044;-77
2023/05/20 16:08:52;;;;;;;5.93;2.50;;;20.60;93.70;;;;;;4937747;29;20040;-76
2023/05/20 16:11:18;;;;;;;5.00;1.90;;;20.60;93.40;;;;;;4952637;28;20047;-78
2023/05/20 16:13:43;;;;;;;7.57;2.17;;;20.70;93.00;;;;;;4952212;28;20043;-77
2023/05/20 16:16:12;;;;;;;6.07;2.08;;;20.60;92.90;;;;;;4952404;29;20046;-76
2023/05/20 16:18:37;;;;;;;5.63;2.10;;;20.60;93.10;;;;;;4937534;29;20039;-78
2023/05/20 16:21:06;;;;;;;6.18;2.17;;;20.50;92.60;;;;;;4952594;28;20048;-78
2023/05/20 16:23:32;;;;;;;7.05;2.08;;;20.40;92.20;;;;;;4952102;29;20040;-78
2023/05/20 16:25:58;;;;;;;5.22;2.70;;;20.30;92.10;;;;;;4937488;29;20078;-78
2023/05/20 16:28:24;;;;;;;6.68;2.03;;;20.30;92.20;;;;;;4951902;29;20071;-76
2023/05/20 16:30:50;;;;;;;7.85;2.65;;;20.20;92.30;;;;;;4937229;29;20480;-76
2023/05/20 16:33:16;;;;;;;6.18;1.90;;;20.20;92.30;;;;;;4935784;29;20050;-77
2023/05/20 16:35:42;;;;;;;8.38;2.35;;;20.10;92.20;;;;;;4951797;29;20048;-78
2023/05/20 16:38:08;;;;;;;12.25;2.08;;;20.10;92.00;;;;;;4951920;29;20118;-77
2023/05/20 16:40:33;;;;;;;8.35;1.75;;;20.00;91.90;;;;;;4951952;29;20456;-79
2023/05/20 16:42:59;;;;;;;3.58;1.60;;;19.90;91.90;;;;;;4951680;29;20385;-76